Time;durP1;ratioP1;P1;durP2;ratioP2;P2;SDS_P1;SDS_P2;PMS_P1;PMS_P2;Temp;Humidity;BMP_temperature;BMP_pressure;BME280_temperature;BME280_humidity;BME280_pressure;Samples;Min_cycle;Max_cycle;Signal;HPM_P1;HPM_P2
2020/12/01 00:01:22;;;;;;;8.05;4.85;;;4.40;99.90;;;4.84;95.49;100367.34;4979002;28;20031;-82
2020/12/01 00:03:54;;;;;;;10.38;5.18;;;4.40;99.90;;;4.89;95.12;100375.47;4980065;28;20057;-84
2020/12/01 00:06:20;;;;;;;8.05;5.15;;;4.40;99.90;;;4.91;94.88;100370.44;4980399;28;20049;-84
2020/12/01 00:08:46;;;;;;;8.82;5.78;;;4.50;99.90;;;4.95;95.33;100381.66;4980096;28;20034;-84
2020/12/01 00:11:16;;;;;;;9.13;5.78;;;4.40;99.90;;;4.95;95.65;100359.50;4981101;28;20417;-83
2020/12/01 00:13:51;;;;;;;6.55;4.80;;;4.40;99.90;;;4.96;95.07;100361.97;4981319;28;20497;-83
2020/12/01 00:16:20;;;;;;;6.43;4.77;;;4.40;99.90;;;4.95;95.52;100365.03;4946512;28;20062;-86
2020/12/01 00:18:51;;;;;;;8.60;5.03;;;4.40;99.90;;;4.91;95.28;100361.31;4963154;28;20243;-85
2020/12/01 00:21:20;;;;;;;6.65;4.38;;;4.40;99.90;;;5.03;95.07;100369.78;4969723;28;20070;-83
2020/12/01 00:23:55;;;;;;;6.90;4.97;;;4.50;99.90;;;4.96;94.61;100361.16;4961401;28;20034;-86
2020/12/01 00:26:24;;;;;;;6.05;4.47;;;4.50;99.90;;;5.00;94.75;100362.13;4959980;28;20423;-83
2020/12/01 00:28:50;;;;;;;6.05;4.80;;;4.50;99.90;;;5.10;94.73;100357.06;4959673;28;20042;-85
2020/12/01 00:31:18;;;;;;;7.90;5.20;;;4.50;99.90;;;5.08;94.95;100367.63;4960006;28;20039;-82
2020/12/01 00:33:45;;;;;;;9.88;5.05;;;4.50;99.90;;;5.11;94.50;100363.38;4959797;28;20031;-84
2020/12/01 00:36:14;;;;;;;7.15;4.70;;;4.50;99.90;;;4.97;95.42;100351.72;4975773;28;20039;-85
2020/12/01 00:38:41;;;;;;;8.02;5.30;;;4.50;99.90;;;5.03;95.52;100345.69;4960628;28;20027;-88
2020/12/01 00:41:18;;;;;;;6.45;4.88;;;4.60;99.90;;;5.06;95.33;100344.19;4961186;28;20041;-86
2020/12/01 00:43:44;;;;;;;8.20;5.07;;;4.50;99.90;;;4.90;95.96;100340.31;4960921;28;20031;-85
2020/12/01 00:46:54;;;;;;;6.78;4.63;;;4.50;99.90;;;4.96;95.71;100337.06;4959540;28;20041;-84
2020/12/01 00:49:47;;;;;;;6.88;4.72;;;4.50;99.90;;;4.89;95.67;100333.16;4958412;28;20505;-84
2020/12/01 00:52:13;;;;;;;6.88;4.55;;;4.50;99.90;;;4.97;95.25;100327.63;4961228;28;20039;-86
2020/12/01 00:54:53;;;;;;;7.22;4.97;;;4.50;99.90;;;5.03;95.38;100339.31;4960876;28;20034;-84
2020/12/01 00:57:27;;;;;;;7.95;5.00;;;4.60;99.90;;;4.91;95.96;100330.88;4976684;28;20035;-83
2020/12/01 00:59:54;;;;;;;7.93;5.35;;;4.50;99.90;;;5.00;95.70;100331.69;4976256;28;20027;-85
2020/12/01 01:02:25;;;;;;;7.15;4.90;;;4.50;99.90;;;4.98;95.69;100329.22;4962280;28;20050;-85
2020/12/01 01:05:04;;;;;;;7.20;4.95;;;4.50;99.90;;;5.03;95.54;100319.94;4978624;28;20034;-85
2020/12/01 01:07:37;;;;;;;7.18;5.28;;;4.50;99.90;;;5.08;95.03;100314.22;4960803;28;20043;-83
2020/12/01 01:10:05;;;;;;;7.55;5.40;;;4.60;99.90;;;5.05;95.36;100323.19;4960616;28;20622;-84
2020/12/01 01:12:37;;;;;;;6.63;4.78;;;4.50;99.90;;;5.14;95.00;100321.22;4960873;28;20042;-85
2020/12/01 01:15:03;;;;;;;7.65;4.55;;;4.60;99.90;;;5.13;95.16;100319.59;4960356;28;20041;-85
2020/12/01 01:17:32;;;;;;;6.53;4.43;;;4.60;99.90;;;5.07;95.14;100313.41;4960122;28;20023;-82
2020/12/01 01:19:57;;;;;;;6.53;4.53;;;4.50;99.90;;;5.17;95.27;100326.91;4960714;28;20050;-82
2020/12/01 01:22:24;;;;;;;6.63;4.35;;;4.60;99.90;;;5.17;95.37;100317.81;4961797;28;20089;-84
2020/12/01 01:24:50;;;;;;;6.15;4.40;;;4.60;99.90;;;5.07;95.75;100309.84;4968926;28;20031;-84
2020/12/01 01:27:44;;;;;;;6.57;4.57;;;4.50;99.90;;;5.11;95.57;100316.34;4961558;28;20533;-83
2020/12/01 01:30:18;;;;;;;5.72;4.22;;;4.50;99.90;;;4.97;95.36;100305.47;4960343;28;20043;-85
2020/12/01 01:32:44;;;;;;;6.47;4.70;;;4.60;99.90;;;5.03;95.78;100312.47;4960377;28;20030;-83
2020/12/01 01:35:10;;;;;;;5.75;3.90;;;4.60;99.90;;;5.18;95.18;100316.66;4960542;28;20133;-84
2020/12/01 01:37:39;;;;;;;5.65;4.03;;;4.60;99.90;;;5.12;95.28;100310.47;4960408;28;20083;-83
2020/12/01 01:40:06;;;;;;;5.47;4.25;;;4.60;99.90;;;5.14;94.95;100312.91;4962359;28;20078;-84
2020/12/01 01:42:35;;;;;;;5.75;4.07;;;4.60;99.90;;;5.18;95.30;100311.09;4969866;28;20031;-83
2020/12/01 01:45:01;;;;;;;5.95;4.45;;;4.60;99.90;;;5.19;95.38;100305.25;4960469;28;20098;-84
2020/12/01 01:47:31;;;;;;;6.03;4.38;;;4.60;99.90;;;5.19;95.28;100304.44;4976990;28;20019;-84
2020/12/01 01:50:14;;;;;;;6.32;4.40;;;4.60;99.90;;;5.20;94.92;100304.09;4968337;28;20046;-84
2020/12/01 01:52:48;;;;;;;6.70;4.95;;;4.60;99.90;;;5.20;95.59;100304.09;4957746;28;20419;-84
2020/12/01 01:55:27;;;;;;;7.90;4.78;;;4.70;99.90;;;5.23;95.69;100306.19;4974866;28;20082;-83
2020/12/01 01:58:02;;;;;;;8.30;4.63;;;4.70;99.90;;;5.21;95.19;100297.41;4991134;28;20030;-85
2020/12/01 02:00:57;;;;;;;6.60;4.53;;;4.70;99.90;;;5.29;95.13;100298.53;4959887;28;20532;-85
2020/12/01 02:03:37;;;;;;;6.68;4.82;;;4.70;99.90;;;5.29;94.97;100290.25;4957838;28;20499;-84
2020/12/01 02:06:41;;;;;;;6.55;5.70;;;4.70;99.90;;;5.36;95.39;100286.97;4957148;28;20117;-83
2020/12/01 02:09:46;;;;;;;6.97;5.30;;;4.70;99.90;;;5.30;95.15;100280.75;4957874;28;20451;-84
2020/12/01 02:12:18;;;;;;;11.70;5.95;;;4.70;99.90;;;5.41;95.01;100289.53;4958011;28;20118;-83
2020/12/01 02:15:06;;;;;;;6.90;5.30;;;4.70;99.90;;;5.44;94.95;100286.91;4957754;28;20121;-84
2020/12/01 02:17:37;;;;;;;9.88;6.75;;;4.80;99.90;;;5.40;95.32;100274.88;4973696;28;20407;-84
2020/12/01 02:20:13;;;;;;;11.20;7.45;;;4.80;99.90;;;5.40;95.61;100277.63;4957335;28;20151;-83
2020/12/01 02:22:55;;;;;;;9.75;6.65;;;4.80;99.90;;;5.47;95.28;100271.56;4974386;28;20054;-83
2020/12/01 02:25:23;;;;;;;11.15;7.05;;;4.80;99.90;;;5.46;95.37;100281.06;4958126;28;20035;-86
2020/12/01 02:27:55;;;;;;;10.95;7.88;;;4.80;99.90;;;5.52;95.30;100282.47;4958062;28;20042;-85
2020/12/01 02:30:21;;;;;;;13.35;8.60;;;4.80;99.90;;;5.50;95.34;100285.56;4974482;28;20046;-83
2020/12/01 02:32:47;;;;;;;14.38;9.13;;;4.80;99.90;;;5.48;96.02;100281.53;4960244;28;20402;-83
2020/12/01 02:35:14;;;;;;;13.85;8.50;;;4.80;99.90;;;5.55;95.68;100284.59;4961492;28;20031;-83
2020/12/01 02:37:43;;;;;;;10.65;7.85;;;4.90;99.90;;;5.51;95.62;100281.66;4962166;28;20522;-82
2020/12/01 02:40:14;;;;;;;11.30;7.90;;;4.80;99.90;;;5.53;95.41;100284.09;4961108;28;20121;-81
2020/12/01 02:42:42;;;;;;;10.32;7.38;;;4.80;99.90;;;5.33;96.07;100283.69;4977332;28;20037;-83
2020/12/01 02:45:10;;;;;;;12.25;8.40;;;4.80;99.90;;;5.36;95.73;100276.69;4961447;28;20031;-83
2020/12/01 02:47:35;;;;;;;10.35;7.38;;;4.80;99.90;;;5.39;95.26;100270.50;4975279;28;20042;-84
2020/12/01 02:50:03;;;;;;;10.55;6.60;;;4.80;99.90;;;5.25;96.04;100267.94;4961368;28;20038;-83
2020/12/01 02:52:29;;;;;;;10.82;7.47;;;4.80;99.90;;;5.30;95.65;100259.44;4961200;28;20034;-80
2020/12/01 02:54:55;;;;;;;7.65;6.05;;;4.80;99.90;;;5.38;95.04;100256.97;4978588;28;20062;-83
2020/12/01 02:57:21;;;;;;;8.55;5.95;;;4.80;99.90;;;5.39;95.02;100258.59;4977238;28;20062;-82
2020/12/01 02:59:47;;;;;;;9.38;5.93;;;4.80;99.90;;;5.30;95.33;100258.59;4960979;28;20039;-81
2020/12/01 03:02:12;;;;;;;7.35;5.57;;;4.80;99.90;;;5.39;95.15;100250.28;4960904;28;20023;-81
2020/12/01 03:04:38;;;;;;;9.07;6.10;;;4.80;99.90;;;5.40;95.24;100246.34;4977088;28;20506;-81
2020/12/01 03:07:04;;;;;;;6.68;5.10;;;4.80;99.90;;;5.32;95.25;100242.50;4976723;28;20033;-83
2020/12/01 03:09:30;;;;;;;6.18;5.10;;;4.80;99.90;;;5.35;95.37;100252.91;4960922;28;20041;-78
2020/12/01 03:11:56;;;;;;;8.70;5.72;;;4.80;99.90;;;5.40;95.14;100251.88;4960893;28;20030;-84
2020/12/01 03:14:24;;;;;;;6.63;4.97;;;4.80;99.90;;;5.42;94.81;100257.94;4960585;28;20043;-83
2020/12/01 03:16:50;;;;;;;8.50;5.28;;;4.80;99.90;;;5.33;95.56;100257.94;4960598;28;20073;-82
2020/12/01 03:19:19;;;;;;;8.18;5.85;;;4.80;99.90;;;5.26;95.61;100254.91;4977551;28;20035;-82
2020/12/01 03:21:46;;;;;;;9.20;5.85;;;4.80;99.90;;;5.32;95.22;100251.63;4960178;28;20050;-81
2020/12/01 03:24:12;;;;;;;8.77;5.95;;;4.80;99.90;;;5.38;95.16;100248.66;4961239;28;20379;-84
2020/12/01 03:26:38;;;;;;;9.35;6.47;;;4.80;99.90;;;5.36;95.42;100254.53;4962045;28;20035;-80
2020/12/01 03:29:05;;;;;;;8.50;6.07;;;4.80;99.90;;;5.37;94.90;100255.31;4977616;28;20031;-82
2020/12/01 03:31:31;;;;;;;9.88;6.40;;;4.80;99.90;;;5.38;94.76;100251.41;4959846;28;20042;-82
2020/12/01 03:33:57;;;;;;;9.90;6.03;;;4.80;99.90;;;5.43;95.10;100268.66;4960472;28;20042;-82
2020/12/01 03:36:23;;;;;;;7.30;4.97;;;4.80;99.90;;;5.46;94.68;100259.69;4960464;28;20069;-83
2020/12/01 03:38:49;;;;;;;10.38;5.50;;;4.80;99.90;;;5.44;94.49;100267.53;4979247;28;20031;-82
2020/12/01 03:41:23;;;;;;;10.07;6.03;;;4.80;99.90;;;5.49;94.68;100277.63;4961361;28;20029;-81
2020/12/01 03:43:51;;;;;;;11.93;6.28;;;4.80;99.90;;;5.42;94.84;100274.53;4960886;28;20086;-79
2020/12/01 03:46:18;;;;;;;10.57;5.80;;;4.80;99.90;;;5.43;94.67;100267.84;4979288;28;20061;-82
2020/12/01 03:48:44;;;;;;;8.70;6.15;;;4.70;99.90;;;5.47;94.22;100272.38;4961829;28;20063;-81
2020/12/01 03:51:10;;;;;;;9.40;6.18;;;4.80;99.90;;;5.41;94.80;100276.50;4960941;28;20143;-80
2020/12/01 03:53:36;;;;;;;10.05;6.75;;;4.80;99.90;;;5.42;94.82;100275.38;4961115;28;20034;-80
2020/12/01 03:56:02;;;;;;;9.77;6.60;;;4.70;99.90;;;5.42;94.71;100272.59;4960847;28;20487;-81
2020/12/01 03:58:28;;;;;;;11.93;6.93;;;4.70;99.90;;;5.41;95.13;100267.38;4961471;28;20035;-83
2020/12/01 04:00:54;;;;;;;9.02;6.43;;;4.70;99.90;;;5.35;94.76;100275.06;4992348;23;20441;-81
2020/12/01 04:03:20;;;;;;;14.50;6.60;;;4.70;99.90;;;5.31;95.14;100266.59;4959746;28;20027;-82
2020/12/01 04:05:46;;;;;;;10.95;6.88;;;4.70;99.90;;;5.26;95.25;100264.03;4960618;28;20038;-82
2020/12/01 04:08:15;;;;;;;11.73;6.75;;;4.70;99.90;;;5.38;95.08;100265.28;4977277;28;20637;-82
2020/12/01 04:10:41;;;;;;;8.82;6.00;;;4.70;99.90;;;5.41;94.92;100259.88;4977021;28;20186;-82
2020/12/01 04:13:07;;;;;;;9.85;6.20;;;4.70;99.90;;;5.43;94.58;100260.34;4991560;28;20066;-81
2020/12/01 04:15:33;;;;;;;7.85;5.78;;;4.70;99.90;;;5.37;95.23;100261.69;4977006;28;20031;-83
2020/12/01 04:18:00;;;;;;;9.15;6.55;;;4.70;99.90;;;5.24;95.65;100255.22;4975939;28;20379;-82
2020/12/01 04:20:26;;;;;;;9.95;5.75;;;4.70;99.90;;;5.41;95.08;100264.59;4977246;28;20057;-79
2020/12/01 04:22:52;;;;;;;8.60;6.10;;;4.70;99.90;;;5.40;95.09;100260.19;4977149;28;20145;-83
2020/12/01 04:25:25;;;;;;;10.55;6.97;;;4.70;99.90;;;5.39;95.55;100261.38;4976855;28;20051;-79
2020/12/01 04:27:54;;;;;;;10.40;6.65;;;4.70;99.90;;;5.32;95.75;100259.94;4977483;28;20068;-81
2020/12/01 04:30:23;;;;;;;10.38;6.43;;;4.70;99.90;;;5.31;96.00;100266.59;4977023;28;20073;-81
2020/12/01 04:32:53;;;;;;;9.73;6.40;;;4.70;99.90;;;5.36;95.39;100262.03;4992420;28;20121;-81
2020/12/01 04:35:24;;;;;;;8.15;5.82;;;4.60;99.90;;;5.32;95.46;100276.53;4978208;28;20050;-82
2020/12/01 04:38:01;;;;;;;11.30;6.40;;;4.70;99.90;;;5.34;95.75;100281.72;4977401;28;20027;-83
2020/12/01 04:40:35;;;;;;;10.07;7.78;;;4.70;99.90;;;5.28;96.24;100283.06;4977655;28;20041;-80
2020/12/01 04:43:27;;;;;;;12.55;6.90;;;4.60;99.90;;;5.29;96.16;100284.69;4977958;28;20031;-82
2020/12/01 04:45:54;;;;;;;9.93;6.80;;;4.60;99.90;;;5.32;96.01;100279.31;4977659;28;20436;-80
2020/12/01 04:48:50;;;;;;;10.32;6.88;;;4.60;99.90;;;5.35;96.20;100286.13;4977244;28;20027;-82
2020/12/01 04:51:42;;;;;;;13.18;8.48;;;4.60;99.90;;;5.36;95.75;100290.53;4978309;28;20034;-84
2020/12/01 04:54:45;;;;;;;11.93;6.82;;;4.70;99.90;;;5.27;96.32;100285.00;4977840;28;20046;-81
2020/12/01 04:58:10;;;;;;;11.73;6.88;;;4.60;99.90;;;5.22;96.83;100284.41;4975699;28;20094;-81
2020/12/01 05:01:04;;;;;;;13.70;7.57;;;4.60;99.90;;;5.12;97.32;100281.97;4977256;28;20198;-79
2020/12/01 05:04:11;;;;;;;11.63;7.25;;;4.60;99.90;;;5.29;96.65;100288.28;4977374;28;20035;-80
2020/12/01 05:07:19;;;;;;;10.68;6.65;;;4.60;99.90;;;5.31;96.03;100291.53;4977970;28;20031;-79
2020/12/01 05:09:53;;;;;;;11.88;7.50;;;4.60;99.90;;;5.29;96.43;100285.50;4977626;28;20390;-80
2020/12/01 05:12:36;;;;;;;11.13;7.75;;;4.60;99.90;;;5.24;96.27;100288.44;4993447;28;20078;-82
2020/12/01 05:15:32;;;;;;;10.70;7.28;;;4.50;99.90;;;5.32;96.71;100286.81;4993218;28;20415;-85
2020/12/01 05:18:03;;;;;;;12.52;7.97;;;4.60;99.90;;;5.37;95.79;100294.91;4979068;28;20111;-82
2020/12/01 05:20:29;;;;;;;11.82;7.78;;;4.60;99.90;;;5.40;96.08;100297.03;4996661;28;20034;-83
2020/12/01 05:23:02;;;;;;;14.18;7.63;;;4.60;99.90;;;5.38;95.80;100295.72;4976066;28;20023;-81
2020/12/01 05:25:31;;;;;;;11.15;7.78;;;4.60;99.90;;;5.41;95.60;100295.88;4991062;28;20027;-84
2020/12/01 05:28:17;;;;;;;13.70;8.43;;;4.60;99.90;;;5.42;96.10;100294.75;4977143;28;20085;-83
2020/12/01 05:30:45;;;;;;;11.15;7.95;;;4.60;99.90;;;5.39;95.82;100297.38;5011721;28;20050;-81
2020/12/01 05:33:28;;;;;;;14.60;8.20;;;4.60;99.90;;;5.43;95.15;100301.88;4998241;28;20046;-80
2020/12/01 05:36:30;;;;;;;14.82;9.35;;;4.60;99.90;;;5.32;95.83;100304.22;4990733;28;20101;-80
2020/12/01 05:39:13;;;;;;;14.77;8.50;;;4.60;99.90;;;5.39;95.85;100306.50;4990489;28;20138;-81
2020/12/01 05:41:41;;;;;;;12.98;8.30;;;4.60;99.90;;;5.56;95.49;100300.03;4976303;28;20398;-82
2020/12/01 05:44:28;;;;;;;16.02;9.35;;;4.60;99.90;;;5.42;95.91;100297.53;4976005;28;20027;-84
2020/12/01 05:47:17;;;;;;;18.45;10.18;;;4.60;99.90;;;5.38;95.93;100291.00;4990200;28;20430;-82
2020/12/01 05:50:03;;;;;;;14.73;9.35;;;4.70;99.90;;;5.37;96.45;100305.19;4990675;28;20039;-80
2020/12/01 05:52:49;;;;;;;21.00;10.60;;;4.70;99.90;;;5.47;96.23;100308.41;4975890;28;20089;-81
2020/12/01 05:55:21;;;;;;;17.02;10.40;;;4.70;99.90;;;5.48;96.11;100301.72;4991191;28;20065;-79
2020/12/01 05:58:12;;;;;;;19.48;10.57;;;4.70;99.90;;;5.49;95.84;100303.31;4975665;28;20050;-81
2020/12/01 06:00:46;;;;;;;14.30;9.45;;;4.70;99.90;;;5.55;95.63;100296.50;4975223;28;20033;-82
2020/12/01 06:03:22;;;;;;;19.95;10.13;;;4.70;99.90;;;5.65;95.64;100295.28;4975889;28;20054;-83
2020/12/01 06:05:57;;;;;;;16.35;9.25;;;4.70;99.90;;;5.62;95.65;100307.03;4977688;28;20035;-82
2020/12/01 06:08:59;;;;;;;18.10;10.05;;;4.70;99.90;;;5.66;95.14;100303.25;4978333;28;20539;-80
2020/12/01 06:12:01;;;;;;;17.23;10.73;;;4.70;99.90;;;5.66;95.73;100296.91;4992483;28;20086;-83
2020/12/01 06:14:42;;;;;;;17.98;11.10;;;4.70;99.90;;;5.70;95.26;100298.69;4977760;28;20041;-79
2020/12/01 06:17:23;;;;;;;18.00;10.38;;;4.80;99.90;;;5.66;95.50;100299.66;4977586;28;20478;-81
2020/12/01 06:20:28;;;;;;;18.63;10.30;;;4.80;99.90;;;5.75;95.41;100306.78;4994647;28;20027;-80
2020/12/01 06:23:24;;;;;;;25.02;13.07;;;4.80;99.90;;;5.75;95.77;100298.47;4993092;28;20031;-80
2020/12/01 06:26:36;;;;;;;23.90;13.20;;;4.80;99.90;;;5.83;95.91;100296.81;4978144;28;20050;-81
2020/12/01 06:29:55;;;;;;;29.27;13.55;;;4.90;99.90;;;5.87;96.11;100302.53;4978933;28;20030;-81
2020/12/01 06:33:16;;;;;;;25.30;14.85;;;5.00;99.90;;;5.93;95.82;100310.31;4976581;28;20033;-80
2020/12/01 06:36:55;;;;;;;24.42;13.35;;;5.00;99.90;;;5.97;95.09;100316.00;4977245;28;20030;-79
2020/12/01 06:39:47;;;;;;;28.95;15.15;;;5.00;99.90;;;5.98;95.34;100314.84;4968163;28;20035;-81
2020/12/01 06:42:49;;;;;;;25.13;13.43;;;5.00;99.90;;;5.97;95.12;100324.31;4977677;28;20037;-80
2020/12/01 06:45:23;;;;;;;28.05;14.82;;;5.00;99.90;;;5.95;95.27;100312.75;4956785;28;20054;-82
2020/12/01 06:47:59;;;;;;;29.13;13.45;;;5.00;99.90;;;5.93;95.53;100318.63;4977239;28;20411;-80
2020/12/01 06:50:25;;;;;;;21.70;12.95;;;5.00;99.90;;;5.95;95.26;100324.66;4978063;28;20471;-83
2020/12/01 06:53:04;;;;;;;25.55;12.77;;;5.00;99.90;;;6.01;95.32;100320.53;4976116;28;20054;-82
2020/12/01 06:56:19;;;;;;;22.20;12.45;;;5.00;99.90;;;6.06;94.85;100333.41;4990790;28;20038;-81
2020/12/01 06:58:50;;;;;;;25.95;15.30;;;5.00;99.90;;;6.08;95.15;100333.88;4957964;28;20035;-81
2020/12/01 07:01:15;;;;;;;34.00;15.30;;;5.10;99.90;;;6.08;95.21;100337.44;4974195;28;20414;-81
2020/12/01 07:03:42;;;;;;;32.97;15.65;;;5.10;99.90;;;6.08;95.40;100331.91;4974846;28;20037;-83
2020/12/01 07:06:28;;;;;;;40.75;17.73;;;5.10;99.90;;;6.19;95.52;100341.47;4975913;28;20046;-83
2020/12/01 07:09:13;;;;;;;40.78;17.25;;;5.20;99.90;;;6.26;95.52;100341.72;4975698;28;20035;-83
2020/12/01 07:12:37;;;;;;;36.35;17.15;;;5.20;99.90;;;6.28;95.36;100342.22;4991277;28;20521;-81
2020/12/01 07:15:27;;;;;;;45.42;19.48;;;5.30;99.90;;;6.25;95.46;100345.69;4991891;28;20081;-83
2020/12/01 07:18:32;;;;;;;48.83;20.23;;;5.30;99.90;;;6.34;95.69;100343.66;4992205;28;20035;-83
2020/12/01 07:21:42;;;;;;;49.50;19.92;;;5.30;99.90;;;6.38;95.55;100342.97;4920822;29;20357;-83
2020/12/01 07:24:52;;;;;;;46.28;19.73;;;5.40;99.90;;;6.45;95.61;100346.84;4994576;28;20553;-81
2020/12/01 07:27:39;;;;;;;43.50;20.00;;;5.40;99.90;;;6.53;95.13;100354.28;4979281;28;20478;-81
2020/12/01 07:30:17;;;;;;;46.42;20.38;;;5.50;99.90;;;6.48;95.37;100351.72;4979526;28;20041;-81
2020/12/01 07:33:05;;;;;;;50.95;21.83;;;5.50;99.90;;;6.49;95.93;100356.09;4983351;28;20046;-81
2020/12/01 07:35:44;;;;;;;49.25;20.90;;;5.50;99.90;;;6.47;96.09;100360.34;4990638;28;20062;-79
2020/12/01 07:38:45;;;;;;;56.80;21.35;;;5.60;99.90;;;6.55;95.79;100362.28;4991785;28;20066;-80
2020/12/01 07:41:27;;;;;;;52.88;21.95;;;5.60;99.90;;;6.55;95.97;100370.59;4986745;28;20031;-82
2020/12/01 07:44:03;;;;;;;54.70;21.50;;;5.60;99.90;;;6.56;96.16;100377.75;4982942;28;20050;-81
2020/12/01 07:46:51;;;;;;;56.90;22.67;;;5.60;99.90;;;6.61;96.06;100378.38;5005008;28;20034;-83
2020/12/01 07:49:27;;;;;;;58.90;23.05;;;5.70;99.90;;;6.59;96.02;100377.88;4989359;28;20030;-82
2020/12/01 07:52:14;;;;;;;;;;;5.70;99.90;;;6.67;96.10;100381.75;4997608;28;20054;-82
2020/12/01 07:54:48;;;;;;;61.10;22.80;;;5.70;99.90;;;6.76;95.87;100383.31;4980375;28;19937;-81
2020/12/01 07:57:38;;;;;;;53.55;21.05;;;5.80;99.90;;;6.75;95.53;100384.44;4994883;28;20037;-82
2020/12/01 08:00:05;;;;;;;65.97;23.02;;;5.80;99.90;;;6.73;95.87;100386.75;4995180;28;20050;-82
2020/12/01 08:02:34;;;;;;;61.45;24.17;;;5.80;99.90;;;6.63;96.56;100387.16;4983168;28;20031;-81
2020/12/01 08:05:11;;;;;;;68.63;25.80;;;5.80;99.90;;;6.71;96.54;100389.03;4982726;28;20031;-82
2020/12/01 08:07:37;;;;;;;56.65;24.67;;;5.80;99.90;;;6.84;95.62;100396.28;4998048;28;20038;-82
2020/12/01 08:10:14;;;;;;;57.78;22.33;;;5.90;99.90;;;6.81;95.98;100390.59;4983847;28;20042;-81
2020/12/01 08:12:51;;;;;;;51.63;20.80;;;5.90;99.90;;;6.97;95.24;100393.59;4982881;28;20035;-81
2020/12/01 08:15:21;;;;;;;52.72;21.80;;;6.00;99.90;;;7.04;94.85;100394.66;4993982;28;20045;-82
2020/12/01 08:17:55;;;;;;;54.25;23.15;;;6.00;99.90;;;6.98;94.99;100397.97;4980890;28;20038;-81
2020/12/01 08:20:41;;;;;;;56.25;23.65;;;5.90;99.90;;;7.02;94.98;100393.38;4979152;28;20037;-82
2020/12/01 08:23:30;;;;;;;50.38;22.65;;;6.00;99.90;;;6.88;95.50;100397.25;4978925;28;20123;-81
2020/12/01 08:26:25;;;;;;;54.17;22.15;;;6.00;99.90;;;6.83;95.95;100397.47;4980471;28;20054;-82
2020/12/01 08:29:32;;;;;;;52.78;22.90;;;6.00;99.90;;;6.85;95.88;100397.94;4979930;28;20031;-81
2020/12/01 08:32:28;;;;;;;58.45;23.85;;;6.00;99.90;;;6.83;95.80;100399.44;4980102;28;20023;-81
2020/12/01 08:35:24;;;;;;;65.85;23.77;;;6.00;99.90;;;6.93;95.81;100403.75;4995360;28;20050;-81
2020/12/01 08:38:12;;;;;;;;;;;6.00;99.90;;;6.99;95.48;100396.84;4980779;28;20059;-83
2020/12/01 08:41:56;;;;;;;64.03;24.70;;;6.00;99.90;;;7.05;95.42;100409.34;4979746;28;19917;-82
2020/12/01 08:44:49;;;;;;;67.10;25.20;;;6.10;99.90;;;7.06;95.72;100400.69;4971303;28;20049;-81
2020/12/01 08:47:23;;;;;;;69.35;26.38;;;6.10;99.90;;;7.20;94.84;100409.53;4979256;28;20029;-82
2020/12/01 08:49:52;;;;;;;66.68;25.63;;;6.20;99.90;;;7.35;94.49;100405.31;4978701;28;20499;-82
2020/12/01 08:52:44;;;;;;;60.47;24.20;;;6.20;99.90;;;7.24;94.50;100410.47;4978915;28;20094;-82
2020/12/01 08:55:44;;;;;;;65.90;25.63;;;6.30;99.90;;;7.35;94.76;100411.66;4977712;28;20121;-82
2020/12/01 08:58:28;;;;;;;62.72;24.40;;;6.30;99.90;;;7.38;94.23;100421.31;4978858;28;20027;-80
2020/12/01 09:01:11;;;;;;;76.72;26.83;;;6.30;99.90;;;7.38;94.32;100421.31;4978177;28;20037;-83
2020/12/01 09:03:52;;;;;;;66.35;26.08;;;6.30;99.90;;;7.49;94.04;100427.22;4979661;28;20114;-82
2020/12/01 09:06:36;;;;;;;60.40;25.02;;;6.30;99.90;;;7.46;93.95;100428.72;4994857;28;20122;-81
2020/12/01 09:09:19;;;;;;;66.63;26.45;;;6.40;99.90;;;7.45;93.95;100438.22;4995223;28;20093;-81
2020/12/01 09:14:51;;;;;;;64.55;24.67;;;6.40;99.90;;;7.46;94.84;100430.69;4977735;28;20042;-84
2020/12/01 09:23:20;;;;;;;63.75;24.55;;;6.50;99.90;;;7.55;94.98;100435.00;4979074;28;20452;-82
2020/12/01 09:25:49;;;;;;;62.90;24.75;;;6.60;99.90;;;7.65;94.29;100442.91;4981286;28;20031;-83
2020/12/01 09:28:28;;;;;;;59.15;23.38;;;6.50;99.90;;;7.62;94.20;100445.56;4979102;28;20031;-81
2020/12/01 09:31:05;;;;;;;55.92;24.08;;;6.50;99.90;;;7.62;93.94;100453.91;4980116;28;20135;-83
2020/12/01 09:33:32;;;;;;;56.38;22.98;;;6.50;99.90;;;7.61;94.26;100446.72;4977306;28;20506;-80
2020/12/01 09:35:58;;;;;;;50.22;21.30;;;6.50;99.90;;;7.68;94.06;100458.91;4978293;28;20401;-83
2020/12/01 09:38:25;;;;;;;49.22;21.52;;;6.60;99.90;;;7.80;92.86;100450.56;4978693;28;20025;-81
2020/12/01 09:40:52;;;;;;;51.22;21.48;;;6.60;99.90;;;7.85;93.48;100460.69;4977669;28;20037;-83
2020/12/01 09:43:26;;;;;;;49.58;20.63;;;6.70;99.90;;;7.83;93.52;100455.44;4995421;28;20046;-80
2020/12/01 09:45:54;;;;;;;51.17;21.45;;;6.70;99.90;;;7.73;93.93;100452.31;4995891;28;20065;-82
2020/12/01 09:48:41;;;;;;;49.95;21.27;;;6.70;99.90;;;7.80;93.73;100458.91;4984897;28;20598;-84
2020/12/01 09:51:06;;;;;;;;;;;6.70;99.90;;;7.86;93.99;100462.31;4978080;28;20043;-82
2020/12/01 09:53:43;;;;;;;45.70;20.45;;;6.80;99.90;;;7.84;93.95;100454.31;4978401;28;20293;-83
2020/12/01 10:07:41;;;;;;;41.53;18.55;;;7.00;99.90;;;8.10;93.49;100454.00;4938334;29;20067;-83
2020/12/01 10:13:03;;;;;;;38.40;18.25;;;7.00;99.90;;;8.14;93.47;100452.16;4972412;28;20030;-81
2020/12/01 10:37:34;;;;;;;43.45;19.67;;;6.80;99.90;;;7.86;95.25;100457.56;4978729;28;20399;-80
2020/12/01 10:40:01;;;;;;;46.38;19.85;;;6.80;99.90;;;7.80;95.60;100458.91;4992871;28;20038;-81
2020/12/01 10:42:26;;;;;;;46.28;20.50;;;6.90;99.90;;;8.01;94.86;100455.25;4978675;28;20465;-81
2020/12/01 10:44:52;;;;;;;44.42;20.80;;;6.90;99.90;;;8.05;94.58;100458.97;4993241;28;20063;-80
2020/12/01 10:47:18;;;;;;;37.17;18.48;;;7.00;99.90;;;8.06;94.70;100453.06;4994152;28;20090;-81
2020/12/01 10:49:44;;;;;;;39.60;18.58;;;7.00;99.90;;;8.00;94.66;100454.44;4978700;28;20022;-80
2020/12/01 10:52:10;;;;;;;35.92;18.40;;;7.00;99.90;;;8.04;94.64;100447.03;4992290;28;20094;-82
2020/12/01 10:54:36;;;;;;;40.28;18.38;;;7.00;99.90;;;7.99;95.27;100454.81;4982457;28;20556;-81
2020/12/01 10:57:02;;;;;;;34.92;17.98;;;7.00;99.90;;;8.11;94.88;100449.25;4981591;28;20106;-83
2020/12/01 10:59:28;;;;;;;34.90;15.95;;;7.00;99.90;;;8.21;94.87;100452.41;4996768;28;20031;-81
2020/12/01 11:01:53;;;;;;;31.83;16.83;;;7.10;99.90;;;8.24;95.16;100457.25;4998911;28;20026;-81
2020/12/01 11:04:22;;;;;;;38.83;17.90;;;7.20;99.90;;;8.18;95.21;100452.28;4982467;28;20438;-82
2020/12/01 11:06:48;;;;;;;34.45;16.67;;;7.20;99.90;;;8.39;94.75;100447.44;4982545;28;20455;-79
2020/12/01 11:09:15;;;;;;;31.65;16.33;;;7.30;99.90;;;8.52;94.37;100459.38;4983843;28;20058;-83
2020/12/01 11:11:41;;;;;;;30.17;15.77;;;7.40;99.90;;;8.64;94.06;100456.56;4998371;28;20037;-84
2020/12/01 11:14:09;;;;;;;27.73;15.35;;;7.50;99.90;;;8.70;94.10;100460.75;4980686;28;20171;-81
2020/12/01 11:16:36;;;;;;;28.85;15.15;;;7.60;99.90;;;8.76;93.68;100454.59;4998396;28;20023;-83
2020/12/01 11:19:04;;;;;;;25.58;14.30;;;7.60;99.90;;;8.72;93.64;100450.06;4982765;28;20054;-80
2020/12/01 11:21:35;;;;;;;25.45;13.30;;;7.60;99.90;;;8.72;93.36;100456.47;4982871;28;20019;-82
2020/12/01 11:24:03;;;;;;;27.70;14.90;;;7.60;99.90;;;8.77;93.65;100461.78;4986120;28;20086;-81
2020/12/01 11:26:29;;;;;;;22.77;12.30;;;7.70;99.90;;;8.82;93.68;100463.50;4985066;28;20039;-81
2020/12/01 11:28:55;;;;;;;23.00;13.13;;;7.70;99.90;;;8.84;93.45;100470.34;4987000;28;20085;-81
2020/12/01 11:31:22;;;;;;;26.17;13.35;;;7.70;99.90;;;8.69;93.84;100461.91;4982409;28;20490;-82
2020/12/01 11:34:17;;;;;;;19.42;11.82;;;7.70;99.90;;;8.71;94.01;100465.16;4981228;28;20031;-82
2020/12/01 11:36:45;;;;;;;21.52;12.73;;;7.70;99.90;;;8.65;94.07;100466.53;4967890;28;20795;-84
2020/12/01 11:39:14;;;;;;;19.50;11.50;;;7.60;99.90;;;8.70;94.13;100457.97;4996134;28;20149;-82
2020/12/01 11:41:42;;;;;;;19.77;11.63;;;7.60;99.90;;;8.69;93.48;100461.91;4996302;28;20031;-83
2020/12/01 11:44:12;;;;;;;19.00;10.68;;;7.60;99.90;;;8.69;93.94;100462.72;4995651;28;20054;-82
2020/12/01 11:46:41;;;;;;;21.00;11.95;;;7.60;99.90;;;8.69;93.68;100462.72;4996027;28;20030;-79